createdAt,value
2022-09-20T00:01:21.807Z,9.41
2022-09-20T00:03:51.412Z,9.33
2022-09-20T00:06:21.557Z,9.35
2022-09-20T00:08:49.395Z,9.32
2022-09-20T00:11:19.064Z,9.32
2022-09-20T00:13:47.917Z,9.30
2022-09-20T00:16:18.123Z,9.27
2022-09-20T00:18:49.454Z,9.23
2022-09-20T00:21:18.878Z,9.23
2022-09-20T00:23:45.674Z,9.21
2022-09-20T00:26:14.092Z,9.19
2022-09-20T00:28:41.735Z,9.18
2022-09-20T00:31:08.703Z,9.13
2022-09-20T00:33:54.189Z,9.13
2022-09-20T00:36:20.991Z,9.07
2022-09-20T00:38:47.837Z,9.08
2022-09-20T00:41:14.835Z,9.08
2022-09-20T00:43:45.345Z,9.03
2022-09-20T00:46:17.957Z,9.04
2022-09-20T00:48:45.086Z,8.99
2022-09-20T00:51:16.762Z,8.97
2022-09-20T00:53:48.774Z,8.97
2022-09-20T00:56:29.823Z,8.91
2022-09-20T00:59:16.609Z,8.86
2022-09-20T01:01:46.571Z,8.82
2022-09-20T01:04:16.358Z,8.84
2022-09-20T01:06:46.350Z,8.80
2022-09-20T01:09:13.255Z,8.81
2022-09-20T01:11:41.209Z,8.79
2022-09-20T01:14:08.847Z,8.82
2022-09-20T01:16:36.967Z,8.79
2022-09-20T01:19:15.109Z,8.79
2022-09-20T01:21:42.109Z,8.78
2022-09-20T01:24:19.002Z,8.79
2022-09-20T01:27:10.006Z,8.81
2022-09-20T01:30:21.549Z,8.81
2022-09-20T01:33:03.122Z,8.80
2022-09-20T01:35:34.434Z,8.77
2022-09-20T01:38:04.134Z,8.76
2022-09-20T01:40:45.734Z,8.70
2022-09-20T01:43:24.846Z,8.68
2022-09-20T01:45:53.199Z,8.62
2022-09-20T01:48:36.232Z,8.60
2022-09-20T01:51:05.935Z,8.58
2022-09-20T01:53:56.955Z,8.53
2022-09-20T01:56:45.298Z,8.48
2022-09-20T01:59:24.322Z,8.44
2022-09-20T02:01:54.337Z,8.37
2022-09-20T02:04:33.192Z,8.33
2022-09-20T02:07:20.283Z,8.29
2022-09-20T02:09:58.572Z,8.24
2022-09-20T02:12:54.458Z,8.18
2022-09-20T02:15:48.215Z,8.13
2022-09-20T02:18:24.106Z,8.07
2022-09-20T02:21:34.574Z,8.01
2022-09-20T02:24:26.350Z,7.99
2022-09-20T02:27:11.474Z,7.98
2022-09-20T02:30:12.915Z,7.97
2022-09-20T02:32:58.229Z,7.96
2022-09-20T02:35:42.057Z,7.94
2022-09-20T02:38:36.621Z,7.86
2022-09-20T02:41:31.060Z,7.80
2022-09-20T02:44:22.453Z,7.72
2022-09-20T02:47:09.054Z,7.63
2022-09-20T02:49:58.981Z,7.53
2022-09-20T02:52:49.120Z,7.43
2022-09-20T02:55:41.845Z,7.39
2022-09-20T02:58:39.170Z,7.32
2022-09-20T03:01:11.673Z,7.29
2022-09-20T03:03:50.624Z,7.21
2022-09-20T03:06:30.349Z,7.20
2022-09-20T03:09:14.053Z,7.19
2022-09-20T03:12:00.906Z,7.16
2022-09-20T03:14:57.721Z,7.19
2022-09-20T03:17:42.548Z,7.17
2022-09-20T03:20:15.401Z,7.16
2022-09-20T03:23:06.893Z,7.14
2022-09-20T03:26:02.399Z,7.15
2022-09-20T03:28:54.147Z,7.15
2022-09-20T03:31:48.796Z,7.13
2022-09-20T03:34:58.362Z,7.12
2022-09-20T03:37:39.715Z,7.18
2022-09-20T03:40:15.970Z,7.19
2022-09-20T03:42:58.959Z,7.21
2022-09-20T03:45:56.603Z,7.23
2022-09-20T03:48:35.922Z,7.24
2022-09-20T03:51:23.750Z,7.27
2022-09-20T03:53:53.666Z,7.29
2022-09-20T03:57:01.870Z,7.30
2022-09-20T03:59:43.994Z,7.29
2022-09-20T04:02:29.526Z,7.27
2022-09-20T04:05:01.260Z,7.24
2022-09-20T04:07:49.531Z,7.26
2022-09-20T04:10:38.216Z,7.24
2022-09-20T04:13:16.384Z,7.21
2022-09-20T04:16:01.793Z,7.17
2022-09-20T04:18:28.570Z,7.18
2022-09-20T04:21:23.953Z,7.14
2022-09-20T04:24:16.596Z,7.13
2022-09-20T04:26:51.894Z,7.08
2022-09-20T04:29:26.570Z,7.11
2022-09-20T04:32:04.080Z,7.13
2022-09-20T04:35:21.359Z,7.10
2022-09-20T04:37:49.736Z,7.15
2022-09-20T04:40:25.662Z,7.18
2022-09-20T04:43:40.769Z,7.20
2022-09-20T04:46:35.851Z,7.22
2022-09-20T04:49:21.417Z,7.23
2022-09-20T04:51:58.340Z,7.27
2022-09-20T04:54:49.286Z,7.32
2022-09-20T04:57:34.581Z,7.35
2022-09-20T05:00:12.953Z,7.40
2022-09-20T05:03:04.397Z,7.44
2022-09-20T05:05:46.258Z,7.52
2022-09-20T05:08:31.785Z,7.58
2022-09-20T05:11:12.921Z,7.65
2022-09-20T05:13:57.734Z,7.73
2022-09-20T05:16:50.511Z,7.80
2022-09-20T05:19:43.334Z,7.81
2022-09-20T05:22:44.336Z,7.94
2022-09-20T05:25:46.751Z,8.01
2022-09-20T05:28:16.590Z,8.10
2022-09-20T05:30:58.561Z,8.18
2022-09-20T05:33:40.462Z,8.21
2022-09-20T05:36:16.715Z,8.27
2022-09-20T05:39:02.824Z,8.35
2022-09-20T05:41:35.597Z,8.42
2022-09-20T05:44:18.615Z,8.47
2022-09-20T05:46:55.030Z,8.49
2022-09-20T05:49:55.824Z,8.58
2022-09-20T05:52:39.624Z,8.64
2022-09-20T05:55:20.863Z,8.74
2022-09-20T05:58:05.957Z,8.86
2022-09-20T06:00:44.652Z,8.85
2022-09-20T06:03:36.773Z,8.96
2022-09-20T06:06:30.346Z,9.05
2022-09-20T06:09:28.878Z,9.07
2022-09-20T06:12:14.092Z,9.14
2022-09-20T06:15:18.010Z,9.24
2022-09-20T06:18:14.092Z,9.24
2022-09-20T06:21:02.530Z,9.31
2022-09-20T06:23:31.416Z,9.36
2022-09-20T06:26:29.950Z,9.43
2022-09-20T06:29:03.361Z,9.52
2022-09-20T06:31:30.290Z,9.64
2022-09-20T06:34:10.717Z,9.74
2022-09-20T06:37:01.607Z,9.79
2022-09-20T06:39:56.322Z,9.83
2022-09-20T06:42:26.937Z,9.78
2022-09-20T06:44:54.461Z,9.81
2022-09-20T06:47:23.329Z,9.86
2022-09-20T06:49:50.559Z,9.93
2022-09-20T06:52:19.574Z,10.02
2022-09-20T06:54:48.350Z,10.07
2022-09-20T06:57:19.196Z,10.18
2022-09-20T06:59:46.006Z,10.28
2022-09-20T07:02:13.016Z,10.36
2022-09-20T07:04:40.206Z,10.45
2022-09-20T07:07:09.718Z,10.60
2022-09-20T07:09:36.894Z,10.71
2022-09-20T07:12:03.949Z,10.82
2022-09-20T07:14:31.260Z,10.89
2022-09-20T07:16:58.062Z,10.98
2022-09-20T07:19:24.821Z,11.05
2022-09-20T07:21:51.676Z,11.08
2022-09-20T07:24:18.524Z,11.06
2022-09-20T07:27:01.562Z,11.07
2022-09-20T07:29:29.321Z,11.03
2022-09-20T07:31:57.194Z,11.03
2022-09-20T07:34:24.556Z,11.14
2022-09-20T07:36:51.464Z,11.18
2022-09-20T07:39:18.930Z,11.15
2022-09-20T07:41:48.676Z,11.19
2022-09-20T07:44:24.428Z,11.13
2022-09-20T07:46:53.239Z,11.11
2022-09-20T07:49:21.411Z,11.16
2022-09-20T07:51:49.972Z,11.15
2022-09-20T07:54:17.722Z,11.20
2022-09-20T07:56:45.691Z,11.33
2022-09-20T07:59:13.853Z,11.39
2022-09-20T08:01:41.380Z,11.51
2022-09-20T08:04:09.428Z,11.61
2022-09-20T08:06:38.154Z,11.71
2022-09-20T08:09:10.222Z,11.89
2022-09-20T08:11:39.690Z,12.16
2022-09-20T08:14:09.131Z,12.38
2022-09-20T08:16:41.484Z,12.56
2022-09-20T08:19:09.271Z,12.54
2022-09-20T08:21:38.997Z,12.66
2022-09-20T08:24:06.089Z,12.95
2022-09-20T08:26:35.572Z,13.07
2022-09-20T08:29:03.189Z,13.08
2022-09-20T08:31:34.511Z,12.99
2022-09-20T08:34:04.025Z,12.87
2022-09-20T08:36:36.422Z,12.89
2022-09-20T08:42:03.827Z,13.23
2022-09-20T08:44:45.331Z,13.32
2022-09-20T08:47:12.466Z,13.52
2022-09-20T08:49:46.142Z,13.59
2022-09-20T08:52:24.517Z,13.73
2022-09-20T08:54:51.518Z,14.18
2022-09-20T08:57:20.847Z,14.14
2022-09-20T08:59:48.458Z,14.17
2022-09-20T09:02:21.303Z,14.00
2022-09-20T09:04:49.991Z,13.86
2022-09-20T09:07:22.099Z,13.79
2022-09-20T09:09:52.117Z,13.74
2022-09-20T09:12:31.070Z,13.50
2022-09-20T09:15:00.973Z,13.44
2022-09-20T09:17:30.377Z,13.36
2022-09-20T09:20:21.762Z,13.39
2022-09-20T09:23:00.116Z,13.51
2022-09-20T09:25:38.125Z,13.78
2022-09-20T09:28:15.572Z,13.97
2022-09-20T09:30:47.762Z,14.32
2022-09-20T09:33:20.389Z,14.16
2022-09-20T09:36:05.393Z,13.99
2022-09-20T09:38:35.541Z,14.25
2022-09-20T09:41:26.843Z,14.65
2022-09-20T09:44:11.130Z,14.92
2022-09-20T09:46:40.352Z,14.79
2022-09-20T09:49:17.419Z,14.70
2022-09-20T09:52:01.752Z,14.72
2022-09-20T09:54:36.597Z,14.80
2022-09-20T09:57:40.465Z,14.98
2022-09-20T10:00:20.359Z,15.13
2022-09-20T10:03:07.679Z,15.06
2022-09-20T10:05:55.209Z,15.26
2022-09-20T10:08:54.349Z,15.22
2022-09-20T10:11:38.451Z,14.93
2022-09-20T10:14:22.966Z,14.85
2022-09-20T10:16:58.703Z,14.93
2022-09-20T10:19:34.593Z,15.18
2022-09-20T10:22:28.742Z,15.34
2022-09-20T10:25:10.425Z,15.47
2022-09-20T10:27:55.690Z,15.59
2022-09-20T10:30:42.266Z,15.51
2022-09-20T10:33:32.805Z,15.86
2022-09-20T10:36:21.369Z,16.01
2022-09-20T10:39:14.241Z,16.15
2022-09-20T10:42:02.847Z,16.25
2022-09-20T10:44:57.230Z,16.22
2022-09-20T10:47:37.548Z,16.25
2022-09-20T10:50:35.101Z,16.16
2022-09-20T10:53:11.965Z,16.17
2022-09-20T10:55:48.817Z,16.31
2022-09-20T10:58:38.610Z,16.19
2022-09-20T11:01:39.219Z,16.26
2022-09-20T11:04:54.266Z,16.30
2022-09-20T11:07:37.927Z,16.24
2022-09-20T11:10:36.835Z,16.18
2022-09-20T11:13:38.867Z,16.25
2022-09-20T11:16:29.419Z,16.11
2022-09-20T11:19:05.718Z,16.19
2022-09-20T11:21:44.739Z,16.53
2022-09-20T11:24:31.168Z,16.58
2022-09-20T11:27:18.698Z,16.47
2022-09-20T11:30:29.860Z,16.57
2022-09-20T11:33:20.808Z,16.45
2022-09-20T11:35:58.843Z,16.33
2022-09-20T11:38:35.104Z,16.54
2022-09-20T11:41:27.674Z,16.53
2022-09-20T11:44:00.583Z,16.44
2022-09-20T11:46:37.293Z,16.54
2022-09-20T11:49:16.338Z,16.68
2022-09-20T11:52:03.634Z,16.17
2022-09-20T11:54:58.251Z,16.05
2022-09-20T11:57:25.789Z,16.14
2022-09-20T11:59:59.305Z,16.29
2022-09-20T12:02:32.038Z,16.55
2022-09-20T12:05:02.110Z,16.56
2022-09-20T12:07:36.453Z,16.47
2022-09-20T12:10:10.890Z,16.54
2022-09-20T12:12:39.628Z,16.44
2022-09-20T12:15:29.867Z,16.35
2022-09-20T12:17:56.707Z,16.51
2022-09-20T12:20:32.937Z,16.64
2022-09-20T12:23:37.006Z,16.68
2022-09-20T12:26:21.903Z,16.86
2022-09-20T12:29:01.162Z,17.00
2022-09-20T12:31:34.433Z,17.17
2022-09-20T12:34:24.610Z,16.95
2022-09-20T12:36:54.041Z,16.87
2022-09-20T12:39:30.093Z,16.83
2022-09-20T12:42:03.243Z,17.05
2022-09-20T12:44:47.453Z,17.28
2022-09-20T12:47:14.545Z,17.48
2022-09-20T12:50:06.105Z,17.43
2022-09-20T12:52:50.750Z,17.56
2022-09-20T12:55:42.583Z,17.73
2022-09-20T12:58:12.162Z,17.71
2022-09-20T13:00:46.658Z,17.45
2022-09-20T13:03:35.034Z,17.21
2022-09-20T13:06:08.905Z,17.12
2022-09-20T13:08:43.467Z,17.03
2022-09-20T13:11:18.713Z,17.02
2022-09-20T13:14:04.381Z,17.12
2022-09-20T13:16:40.493Z,17.21
2022-09-20T13:19:16.857Z,17.16
2022-09-20T13:22:14.441Z,17.09
2022-09-20T13:24:48.500Z,17.15
2022-09-20T13:27:32.769Z,17.22
2022-09-20T13:30:31.934Z,17.44
2022-09-20T13:33:17.557Z,17.27
2022-09-20T13:35:48.468Z,17.26
2022-09-20T13:38:25.187Z,17.25
2022-09-20T13:40:54.380Z,17.14
2022-09-20T13:43:36.965Z,17.28
2022-09-20T13:46:16.690Z,17.42
2022-09-20T13:48:47.350Z,17.57
2022-09-20T13:51:40.734Z,17.75
2022-09-20T13:54:22.263Z,17.78
2022-09-20T13:56:50.994Z,17.60
2022-09-20T13:59:19.624Z,17.58
2022-09-20T14:01:53.100Z,17.39
2022-09-20T14:04:25.040Z,17.45
2022-09-20T14:06:56.503Z,17.50
2022-09-20T14:09:33.066Z,17.36
2022-09-20T14:12:01.445Z,17.47
2022-09-20T14:14:29.187Z,17.68
2022-09-20T14:16:58.278Z,18.00
2022-09-20T14:19:37.433Z,17.99
2022-09-20T14:22:05.453Z,17.99
2022-09-20T14:24:35.716Z,17.83
2022-09-20T14:27:22.433Z,17.76
2022-09-20T14:29:54.987Z,17.78
2022-09-20T14:32:42.760Z,17.71
2022-09-20T14:35:31.555Z,17.79
2022-09-20T14:38:06.154Z,17.80
2022-09-20T14:40:44.787Z,17.70
2022-09-20T14:43:29.391Z,17.56
2022-09-20T14:46:18.729Z,17.45
2022-09-20T14:48:46.528Z,17.40
2022-09-20T14:51:22.345Z,17.25
2022-09-20T14:54:07.319Z,17.31
2022-09-20T14:56:37.429Z,17.31
2022-09-20T14:59:14.642Z,17.49
2022-09-20T15:01:46.434Z,17.68
2022-09-20T15:04:25.549Z,17.70
2022-09-20T15:06:55.122Z,17.67
2022-09-20T15:09:23.006Z,17.42
2022-09-20T15:12:20.393Z,17.40
2022-09-20T15:14:48.345Z,17.52
2022-09-20T15:17:20.897Z,17.41
2022-09-20T15:19:49.439Z,16.86
2022-09-20T15:22:16.361Z,16.36
2022-09-20T15:24:43.678Z,15.96
2022-09-20T15:27:13.523Z,15.67
2022-09-20T15:29:40.407Z,15.45
2022-09-20T15:32:09.585Z,15.09
2022-09-20T15:34:36.392Z,14.83
2022-09-20T15:37:03.439Z,14.61
2022-09-20T15:39:30.274Z,14.50
2022-09-20T15:41:57.430Z,14.38
2022-09-20T15:44:24.372Z,14.28
2022-09-20T15:46:51.617Z,14.15
2022-09-20T15:49:18.602Z,14.18
2022-09-20T15:51:46.465Z,14.17
2022-09-20T15:54:14.900Z,14.10
2022-09-20T15:56:42.281Z,14.05
2022-09-20T15:59:11.563Z,13.91
2022-09-20T16:01:41.972Z,13.81
2022-09-20T16:04:19.676Z,13.70
2022-09-20T16:06:49.599Z,13.58
2022-09-20T16:09:18.450Z,13.49
2022-09-20T16:11:45.919Z,13.43
2022-09-20T16:14:13.069Z,13.34
2022-09-20T16:16:40.823Z,13.29
2022-09-20T16:19:22.011Z,13.22
2022-09-20T16:21:57.781Z,13.14
2022-09-20T16:24:30.969Z,13.07
2022-09-20T16:26:59.279Z,12.99
2022-09-20T16:29:27.120Z,12.87
2022-09-20T16:31:55.060Z,12.81
2022-09-20T16:34:31.132Z,12.72
2022-09-20T16:37:03.050Z,12.67
2022-09-20T16:39:31.422Z,12.64
2022-09-20T16:42:06.801Z,12.56
2022-09-20T16:44:36.001Z,12.47
2022-09-20T16:47:08.152Z,12.45
2022-09-20T16:49:36.356Z,12.43
2022-09-20T16:52:07.604Z,12.45
2022-09-20T16:54:34.710Z,12.41
2022-09-20T16:57:01.622Z,12.41
2022-09-20T16:59:28.720Z,12.37
2022-09-20T17:01:55.705Z,12.30
2022-09-20T17:04:22.905Z,12.30
2022-09-20T17:06:51.544Z,12.30
2022-09-20T17:09:18.617Z,12.26
2022-09-20T17:11:49.209Z,12.20
2022-09-20T17:14:17.921Z,12.09
2022-09-20T17:16:48.518Z,11.97
2022-09-20T17:19:18.740Z,11.90
2022-09-20T17:21:50.329Z,11.78
2022-09-20T17:24:19.767Z,11.74
2022-09-20T17:26:47.237Z,11.71
2022-09-20T17:29:17.589Z,11.63
2022-09-20T17:31:51.505Z,11.60
2022-09-20T17:34:22.155Z,11.54
2022-09-20T17:36:50.570Z,11.49
2022-09-20T17:39:17.971Z,11.47
2022-09-20T17:41:47.063Z,11.42
2022-09-20T17:44:26.668Z,11.37
2022-09-20T17:47:07.301Z,11.26
2022-09-20T17:49:54.684Z,11.29
2022-09-20T17:52:28.198Z,11.26
2022-09-20T17:54:55.089Z,11.26
2022-09-20T17:57:21.906Z,11.30
2022-09-20T17:59:48.739Z,11.32
2022-09-20T18:02:16.061Z,11.28
2022-09-20T18:04:42.891Z,11.26
2022-09-20T18:07:09.815Z,11.24
2022-09-20T18:09:36.726Z,11.18
2022-09-20T18:12:05.133Z,11.16
2022-09-20T18:14:32.735Z,11.16
2022-09-20T18:17:01.636Z,11.14
2022-09-20T18:19:35.222Z,11.14
2022-09-20T18:22:02.887Z,11.13
2022-09-20T18:24:30.504Z,11.11
2022-09-20T18:26:57.348Z,11.09
2022-09-20T18:29:25.123Z,10.91
2022-09-20T18:31:54.787Z,10.89
2022-09-20T18:34:24.352Z,10.90
2022-09-20T18:36:54.345Z,10.88
2022-09-20T18:39:27.645Z,10.83
2022-09-20T18:41:55.157Z,10.75
2022-09-20T18:44:23.117Z,10.66
2022-09-20T18:46:55.324Z,10.60
2022-09-20T18:49:22.618Z,10.58
2022-09-20T18:51:49.765Z,10.56
2022-09-20T18:54:17.823Z,10.47
2022-09-20T18:56:46.717Z,10.39
2022-09-20T18:59:18.207Z,10.30
2022-09-20T19:01:54.087Z,10.25
2022-09-20T19:04:39.868Z,10.24
2022-09-20T19:07:16.214Z,10.22
2022-09-20T19:09:50.634Z,10.18
2022-09-20T19:12:37.226Z,10.10
2022-09-20T19:15:13.099Z,10.13
2022-09-20T19:17:48.146Z,10.12
2022-09-20T19:20:20.743Z,10.13
2022-09-20T19:23:06.318Z,10.12
2022-09-20T19:25:43.541Z,10.10
2022-09-20T19:28:12.587Z,10.08
2022-09-20T19:30:40.730Z,10.11
2022-09-20T19:33:17.944Z,10.11
2022-09-20T19:35:50.137Z,10.04
2022-09-20T19:38:26.069Z,10.01
2022-09-20T19:41:20.701Z,9.95
2022-09-20T19:43:56.730Z,9.97
2022-09-20T19:46:46.396Z,9.93
2022-09-20T19:49:32.072Z,9.86
2022-09-20T19:51:59.208Z,9.85
2022-09-20T19:54:26.456Z,9.79
2022-09-20T19:56:54.995Z,9.73
2022-09-20T19:59:24.462Z,9.66
2022-09-20T20:01:52.707Z,9.60
2022-09-20T20:04:21.044Z,9.62
2022-09-20T20:06:47.990Z,9.65
2022-09-20T20:09:23.024Z,9.63
2022-09-20T20:12:01.746Z,9.61
2022-09-20T20:14:50.970Z,9.56
2022-09-20T20:17:46.446Z,9.52
2022-09-20T20:20:22.614Z,9.49
2022-09-20T20:23:11.604Z,9.42
2022-09-20T20:25:50.414Z,9.36
2022-09-20T20:28:17.333Z,9.26
2022-09-20T20:30:44.135Z,9.23
2022-09-20T20:33:17.340Z,9.18
2022-09-20T20:35:44.103Z,9.12
2022-09-20T20:38:11.925Z,9.09
2022-09-20T20:40:38.784Z,9.01
2022-09-20T20:43:06.283Z,9.00
2022-09-20T20:45:33.200Z,8.98
2022-09-20T20:48:00.118Z,8.95
2022-09-20T20:50:28.338Z,8.91
2022-09-20T20:52:56.589Z,8.88
2022-09-20T20:55:24.861Z,8.85
2022-09-20T20:58:01.276Z,8.82
2022-09-20T21:00:28.507Z,8.84
2022-09-20T21:03:03.098Z,8.79
2022-09-20T21:05:31.087Z,8.67
2022-09-20T21:07:58.945Z,8.68
2022-09-20T21:10:28.842Z,8.61
2022-09-20T21:12:55.786Z,8.61
2022-09-20T21:15:22.767Z,8.56
2022-09-20T21:17:53.359Z,8.55
2022-09-20T21:20:21.726Z,8.55
2022-09-20T21:22:48.602Z,8.48
2022-09-20T21:25:15.488Z,8.49
2022-09-20T21:27:42.862Z,8.42
2022-09-20T21:30:10.220Z,8.37
2022-09-20T21:32:37.064Z,8.33
2022-09-20T21:35:04.133Z,8.32
2022-09-20T21:37:31.009Z,8.24
2022-09-20T21:39:57.966Z,8.30
2022-09-20T21:42:27.395Z,8.25
2022-09-20T21:44:54.575Z,8.19
2022-09-20T21:47:21.554Z,8.15
2022-09-20T21:49:48.687Z,8.16
2022-09-20T21:52:15.866Z,8.13
2022-09-20T21:54:46.746Z,8.08
2022-09-20T21:57:13.993Z,8.05
2022-09-20T21:59:41.870Z,8.04
2022-09-20T22:02:09.345Z,8.03
2022-09-20T22:04:36.686Z,8.02
2022-09-20T22:07:04.642Z,7.95
2022-09-20T22:09:31.672Z,7.92
2022-09-20T22:11:58.731Z,7.93
2022-09-20T22:14:25.970Z,7.96
2022-09-20T22:16:53.233Z,7.93
2022-09-20T22:19:20.695Z,7.94
2022-09-20T22:21:50.058Z,7.98
2022-09-20T22:24:17.171Z,7.98
2022-09-20T22:26:46.009Z,7.93
2022-09-20T22:29:13.010Z,7.86
2022-09-20T22:31:45.326Z,7.85
2022-09-20T22:34:22.024Z,7.80
2022-09-20T22:36:49.673Z,7.73
2022-09-20T22:39:17.438Z,7.71
2022-09-20T22:41:45.087Z,7.69
2022-09-20T22:44:12.593Z,7.61
2022-09-20T22:46:40.114Z,7.61
2022-09-20T22:49:08.693Z,7.59
2022-09-20T22:51:36.084Z,7.59
2022-09-20T22:54:08.371Z,7.58
2022-09-20T22:56:36.443Z,7.65
2022-09-20T22:59:11.075Z,7.69
2022-09-20T23:01:44.187Z,7.71
2022-09-20T23:04:13.783Z,7.74
2022-09-20T23:06:40.625Z,7.76
2022-09-20T23:09:10.364Z,7.77
2022-09-20T23:11:39.021Z,7.77
2022-09-20T23:14:06.781Z,7.79
2022-09-20T23:16:36.642Z,7.78
2022-09-20T23:19:05.746Z,7.79
2022-09-20T23:21:33.655Z,7.73
2022-09-20T23:24:02.746Z,7.74
2022-09-20T23:26:32.846Z,7.73
2022-09-20T23:29:05.655Z,7.77
2022-09-20T23:31:34.997Z,7.77
2022-09-20T23:34:04.569Z,7.84
2022-09-20T23:36:33.347Z,7.86
2022-09-20T23:39:00.262Z,7.86
2022-09-20T23:41:28.469Z,7.92
2022-09-20T23:43:55.564Z,7.89
2022-09-20T23:46:24.426Z,7.91
2022-09-20T23:48:51.475Z,7.88
2022-09-20T23:51:22.611Z,7.88
2022-09-20T23:53:50.493Z,7.87
2022-09-20T23:56:18.065Z,7.87
2022-09-20T23:58:45.245Z,7.83
